createdAt,value
2022-11-24T00:00:27.064Z,99873.34
2022-11-24T00:02:31.091Z,99880.13
2022-11-24T00:04:34.980Z,99882.50
2022-11-24T00:06:38.654Z,99879.31
2022-11-24T00:08:46.412Z,99881.19
2022-11-24T00:10:49.811Z,99874.41
2022-11-24T00:12:53.109Z,99887.41
2022-11-24T00:14:56.381Z,99865.78
2022-11-24T00:16:59.726Z,99884.97
2022-11-24T00:19:04.825Z,99880.56
2022-11-24T00:21:08.736Z,99883.13
2022-11-24T00:23:12.042Z,99884.81
2022-11-24T00:25:16.792Z,99882.88
2022-11-24T00:27:20.222Z,99883.03
2022-11-24T00:29:23.562Z,99885.63
2022-11-24T00:31:28.445Z,99885.50
2022-11-24T00:33:32.459Z,99888.06
2022-11-24T00:35:35.733Z,99882.97
2022-11-24T00:37:39.052Z,99882.97
2022-11-24T00:39:42.407Z,99883.06
2022-11-24T00:41:47.126Z,99883.91
2022-11-24T00:43:50.790Z,99876.16
2022-11-24T00:45:54.203Z,99877.97
2022-11-24T00:47:57.770Z,99890.91
2022-11-24T00:50:01.039Z,99882.72
2022-11-24T00:52:04.429Z,99886.28
2022-11-24T00:54:07.797Z,99888.78
2022-11-24T00:56:12.301Z,99890.34
2022-11-24T00:58:16.925Z,99893.81
2022-11-24T01:00:20.707Z,99888.63
2022-11-24T01:02:24.045Z,99895.34
2022-11-24T01:04:27.698Z,99901.16
2022-11-24T01:06:32.494Z,99904.50
2022-11-24T01:08:38.442Z,99906.34
2022-11-24T01:10:41.899Z,99900.94
2022-11-24T01:12:45.208Z,99917.84
2022-11-24T01:14:49.854Z,99913.41
2022-11-24T01:16:53.173Z,99923.88
2022-11-24T01:18:57.051Z,99893.25
2022-11-24T01:21:09.628Z,99931.91
2022-11-24T01:23:13.479Z,99867.78
2022-11-24T01:25:17.259Z,99935.50
2022-11-24T01:27:20.712Z,99922.66
2022-11-24T01:29:23.965Z,99931.41
2022-11-24T01:31:29.276Z,99932.31
2022-11-24T01:33:32.762Z,99921.13
2022-11-24T01:35:36.087Z,99936.06
2022-11-24T01:37:39.434Z,99930.84
2022-11-24T01:39:42.780Z,99930.94
2022-11-24T01:41:46.103Z,99931.91
2022-11-24T01:43:50.817Z,99932.94
2022-11-24T01:45:55.703Z,99932.09
2022-11-24T01:48:03.489Z,99929.47
2022-11-24T01:50:11.257Z,99934.75
2022-11-24T01:52:18.691Z,99916.34
2022-11-24T01:54:26.138Z,99931.25
2022-11-24T01:56:30.741Z,99930.28
2022-11-24T01:58:36.675Z,99934.91
2022-11-24T02:00:43.775Z,99942.84
2022-11-24T02:02:47.294Z,99934.97
2022-11-24T02:04:52.650Z,99932.38
2022-11-24T02:07:01.401Z,99929.56
2022-11-24T02:09:09.129Z,99945.44
2022-11-24T02:11:12.421Z,99938.56
2022-11-24T02:13:16.558Z,99948.25
2022-11-24T02:15:21.045Z,99961.22
2022-11-24T02:17:24.397Z,99952.56
2022-11-24T02:19:38.415Z,99955.94
2022-11-24T02:21:43.053Z,99954.28
2022-11-24T02:23:55.868Z,99956.13
2022-11-24T02:26:10.829Z,99955.41
2022-11-24T02:28:18.210Z,99959.78
2022-11-24T02:30:21.626Z,99958.78
2022-11-24T02:32:25.156Z,99952.56
2022-11-24T02:34:28.528Z,99961.22
2022-11-24T02:36:32.145Z,99962.06
2022-11-24T02:38:36.712Z,99957.06
2022-11-24T02:40:42.498Z,99953.69
2022-11-24T02:42:48.121Z,99957.25
2022-11-24T02:44:56.532Z,99965.06
2022-11-24T02:47:04.084Z,99966.16
2022-11-24T02:49:07.499Z,99973.13
2022-11-24T02:51:10.784Z,99916.09
2022-11-24T02:53:14.012Z,99970.59
2022-11-24T02:55:17.553Z,99966.31
2022-11-24T02:57:20.873Z,99967.19
2022-11-24T02:59:24.607Z,99969.81
2022-11-24T03:01:29.282Z,99969.00
2022-11-24T03:03:32.742Z,99970.75
2022-11-24T03:05:36.095Z,99965.50
2022-11-24T03:07:39.518Z,99960.31
2022-11-24T03:09:42.860Z,99960.25
2022-11-24T03:11:46.174Z,99954.22
2022-11-24T03:13:50.527Z,99963.72
2022-11-24T03:15:53.817Z,99968.16
2022-11-24T03:17:58.921Z,99975.13
2022-11-24T03:20:04.790Z,99976.91
2022-11-24T03:22:08.417Z,99970.97
2022-11-24T03:24:11.832Z,99977.00
2022-11-24T03:26:17.849Z,99975.41
2022-11-24T03:28:21.136Z,99975.41
2022-11-24T03:30:24.435Z,99979.59
2022-11-24T03:32:27.999Z,99979.53
2022-11-24T03:34:33.106Z,99973.50
2022-11-24T03:36:36.534Z,99984.72
2022-11-24T03:38:39.798Z,99983.81
2022-11-24T03:40:43.241Z,99990.72
2022-11-24T03:42:46.639Z,99989.91
2022-11-24T03:44:49.942Z,99988.28
2022-11-24T03:46:53.229Z,99995.38
2022-11-24T03:48:56.715Z,99993.72
2022-11-24T03:51:03.066Z,99989.56
2022-11-24T03:53:06.416Z,99986.91
2022-11-24T03:55:09.746Z,99976.16
2022-11-24T03:57:13.007Z,99995.59
2022-11-24T03:59:16.930Z,99992.09
2022-11-24T04:01:20.262Z,100001.59
2022-11-24T04:03:24.292Z,100005.91
2022-11-24T04:05:27.595Z,100005.09
2022-11-24T04:07:32.323Z,100003.28
2022-11-24T04:09:35.653Z,100008.56
2022-11-24T04:11:56.284Z,100008.56
2022-11-24T04:13:59.612Z,100011.22
2022-11-24T04:16:06.668Z,100011.97
2022-11-24T04:18:13.065Z,100024.22
2022-11-24T04:20:17.467Z,99991.00
2022-11-24T04:22:20.837Z,100009.53
2022-11-24T04:24:25.488Z,100006.94
2022-11-24T04:26:29.061Z,100012.22
2022-11-24T04:28:32.321Z,100016.41
2022-11-24T04:30:36.143Z,100013.81
2022-11-24T04:32:39.464Z,100020.69
2022-11-24T04:34:42.765Z,100017.41
2022-11-24T04:36:46.093Z,100018.56
2022-11-24T04:39:23.900Z,100021.16
2022-11-24T04:41:14.071Z,99959.56
2022-11-24T04:43:19.225Z,100016.81
2022-11-24T04:45:22.664Z,100022.81
2022-11-24T04:47:27.610Z,100030.53
2022-11-24T04:49:31.304Z,100035.78
2022-11-24T04:51:34.624Z,100023.03
2022-11-24T04:53:37.955Z,100032.66
2022-11-24T04:55:41.621Z,100033.50
2022-11-24T04:57:46.238Z,100042.19
2022-11-24T04:59:50.199Z,100042.19
2022-11-24T05:01:53.541Z,100043.94
2022-11-24T05:03:57.672Z,100045.06
2022-11-24T05:06:01.063Z,100045.97
2022-11-24T05:08:07.730Z,100052.78
2022-11-24T05:10:29.445Z,100051.91
2022-11-24T05:12:32.877Z,100062.34
2022-11-24T05:14:37.583Z,100058.97
2022-11-24T05:16:41.009Z,100065.03
2022-11-24T05:18:44.366Z,100065.13
2022-11-24T05:20:47.851Z,100066.97
2022-11-24T05:22:51.486Z,100071.88
2022-11-24T05:24:54.830Z,100072.84
2022-11-24T05:26:58.164Z,100071.13
2022-11-24T05:29:01.494Z,100059.59
2022-11-24T05:31:06.458Z,100069.28
2022-11-24T05:33:16.036Z,100095.41
2022-11-24T05:35:19.370Z,100088.38
2022-11-24T05:37:22.870Z,100075.28
2022-11-24T05:39:26.210Z,100096.22
2022-11-24T05:41:29.500Z,100093.63
2022-11-24T05:43:32.893Z,100093.69
2022-11-24T05:45:36.235Z,100097.13
2022-11-24T05:47:42.106Z,100103.22
2022-11-24T05:49:45.432Z,100077.94
2022-11-24T05:51:48.890Z,100099.81
2022-11-24T05:53:52.208Z,100101.44
2022-11-24T05:55:55.528Z,100105.66
2022-11-24T05:58:00.352Z,100110.88
2022-11-24T06:00:04.565Z,100112.56
2022-11-24T06:02:15.756Z,100117.91
2022-11-24T06:04:20.526Z,100117.81
2022-11-24T06:06:23.838Z,100125.63
2022-11-24T06:08:31.052Z,100124.03
2022-11-24T06:10:35.024Z,100132.63
2022-11-24T06:12:38.312Z,100125.72
2022-11-24T06:14:42.005Z,100127.47
2022-11-24T06:16:45.337Z,100130.09
2022-11-24T06:18:48.704Z,100139.47
2022-11-24T06:21:09.776Z,100136.91
2022-11-24T06:23:14.452Z,100139.53
2022-11-24T06:25:18.522Z,100139.53
2022-11-24T06:27:21.868Z,100152.72
2022-11-24T06:29:25.270Z,100149.19
2022-11-24T06:31:28.750Z,100159.63
2022-11-24T06:33:33.702Z,100151.91
2022-11-24T06:35:36.980Z,100162.22
2022-11-24T06:37:41.752Z,100171.94
2022-11-24T06:39:45.064Z,100168.25
2022-11-24T06:41:50.600Z,100176.13
2022-11-24T06:43:53.937Z,100168.13
2022-11-24T06:45:57.520Z,100175.94
2022-11-24T06:48:00.898Z,100176.88
2022-11-24T06:50:04.544Z,100173.53
2022-11-24T06:52:08.097Z,100158.34
2022-11-24T06:54:16.530Z,100174.09
2022-11-24T06:56:21.086Z,100175.59
2022-11-24T06:58:24.394Z,100187.09
2022-11-24T07:00:29.237Z,100183.56
2022-11-24T07:02:32.734Z,100185.28
2022-11-24T07:04:36.314Z,100184.25
2022-11-24T07:06:41.271Z,100194.13
2022-11-24T07:08:45.110Z,100196.63
2022-11-24T07:10:49.847Z,100179.97
2022-11-24T07:12:53.177Z,100208.81
2022-11-24T07:14:56.489Z,100218.22
2022-11-24T07:17:00.660Z,100220.81
2022-11-24T07:19:04.044Z,100221.56
2022-11-24T07:21:08.050Z,100207.25
2022-11-24T07:23:11.409Z,100235.19
2022-11-24T07:25:14.983Z,100240.53
2022-11-24T07:27:19.658Z,100237.53
2022-11-24T07:29:22.928Z,100245.09
2022-11-24T07:31:26.287Z,100238.09
2022-11-24T07:33:29.624Z,100247.53
2022-11-24T07:35:32.980Z,100247.53
2022-11-24T07:37:36.263Z,100265.03
2022-11-24T07:39:39.587Z,100274.66
2022-11-24T07:41:43.013Z,100271.13
2022-11-24T07:43:48.214Z,100270.22
2022-11-24T07:45:52.973Z,100272.63
2022-11-24T07:47:56.811Z,100282.41
2022-11-24T07:50:00.133Z,100288.50
2022-11-24T07:52:04.448Z,100290.31
2022-11-24T07:54:07.731Z,100295.25
2022-11-24T07:56:12.505Z,100293.31
2022-11-24T07:58:16.144Z,100308.16
2022-11-24T08:00:21.479Z,100310.03
2022-11-24T08:02:25.274Z,100303.03
2022-11-24T08:04:28.710Z,100320.78
2022-11-24T08:06:40.665Z,100298.97
2022-11-24T08:08:46.880Z,100319.09
2022-11-24T08:10:50.464Z,100324.34
2022-11-24T08:12:53.829Z,100335.75
2022-11-24T08:14:57.194Z,100338.72
2022-11-24T08:17:01.963Z,100338.41
2022-11-24T08:19:05.382Z,100345.47
2022-11-24T08:21:09.492Z,100346.31
2022-11-24T08:23:12.773Z,100347.25
2022-11-24T08:25:17.789Z,100345.56
2022-11-24T08:27:21.132Z,100350.03
2022-11-24T08:29:24.492Z,100350.28
2022-11-24T08:31:33.582Z,100328.97
2022-11-24T08:33:39.609Z,100342.88
2022-11-24T08:35:43.025Z,100356.22
2022-11-24T08:37:46.446Z,100356.22
2022-11-24T08:39:51.617Z,100360.69
2022-11-24T08:41:54.934Z,100368.66
2022-11-24T08:43:58.369Z,100372.06
2022-11-24T08:46:02.152Z,100367.75
2022-11-24T08:48:06.558Z,100373.66
2022-11-24T08:50:11.561Z,100331.34
2022-11-24T08:52:15.341Z,100373.75
2022-11-24T08:54:19.784Z,100380.75
2022-11-24T08:56:23.080Z,100380.88
2022-11-24T08:58:26.395Z,100382.72
2022-11-24T09:00:29.790Z,100385.91
2022-11-24T09:02:33.305Z,100403.50
2022-11-24T09:04:36.952Z,100393.22
2022-11-24T09:06:41.998Z,100379.22
2022-11-24T09:08:45.371Z,100403.16
2022-11-24T09:10:48.810Z,100400.41
2022-11-24T09:12:52.125Z,100398.00
2022-11-24T09:14:55.463Z,100405.13
2022-11-24T09:16:58.851Z,100414.06
2022-11-24T09:19:03.754Z,100395.59
2022-11-24T09:21:08.176Z,100415.03
2022-11-24T09:23:12.975Z,100422.91
2022-11-24T09:25:16.524Z,100417.78
2022-11-24T09:27:19.835Z,100422.34
2022-11-24T09:29:23.173Z,100429.66
2022-11-24T09:31:28.281Z,100432.19
2022-11-24T09:33:32.066Z,100435.00
2022-11-24T09:35:38.039Z,100431.69
2022-11-24T09:37:43.339Z,100441.88
2022-11-24T09:39:48.061Z,100448.78
2022-11-24T09:42:15.054Z,100451.63
2022-11-24T09:44:45.944Z,100454.09
2022-11-24T09:46:57.000Z,100452.25
2022-11-24T09:49:04.513Z,100446.19
2022-11-24T09:51:12.767Z,100456.06
2022-11-24T09:53:23.998Z,100458.84
2022-11-24T09:55:35.957Z,100446.50
2022-11-24T09:57:41.613Z,100465.53
2022-11-24T09:59:45.045Z,100456.00
2022-11-24T10:01:49.959Z,100464.06
2022-11-24T10:03:54.166Z,100466.69
2022-11-24T10:05:57.932Z,100467.94
2022-11-24T10:08:13.266Z,100462.94
2022-11-24T10:10:24.488Z,100468.09
2022-11-24T10:12:46.718Z,100465.84
2022-11-24T10:15:18.805Z,100470.56
2022-11-24T10:17:34.406Z,100467.97
2022-11-24T10:19:46.969Z,100485.53
2022-11-24T10:22:04.367Z,100487.66
2022-11-24T10:24:45.174Z,100494.28
2022-11-24T10:26:55.709Z,100495.41
2022-11-24T10:29:00.558Z,100500.06
2022-11-24T10:31:22.021Z,100501.91
2022-11-24T10:33:30.822Z,100495.00
2022-11-24T10:35:40.389Z,100495.56
2022-11-24T10:37:52.060Z,100501.13
2022-11-24T10:40:04.774Z,100499.88
2022-11-24T10:42:17.077Z,100495.94
2022-11-24T10:44:21.815Z,100501.16
2022-11-24T10:46:28.280Z,100505.50
2022-11-24T10:48:41.459Z,100510.50
2022-11-24T10:50:46.029Z,100501.78
2022-11-24T10:52:56.205Z,100512.16
2022-11-24T10:55:01.214Z,100498.91
2022-11-24T10:57:04.673Z,100516.72
2022-11-24T10:59:35.813Z,100515.63
2022-11-24T11:01:39.280Z,100516.53
2022-11-24T11:03:48.672Z,100517.56
2022-11-24T11:05:53.948Z,100517.84
2022-11-24T11:08:20.279Z,100516.28
2022-11-24T11:10:25.608Z,100524.84
2022-11-24T11:12:46.159Z,100513.56
2022-11-24T11:14:51.605Z,100522.31
2022-11-24T11:16:57.566Z,100501.63
2022-11-24T11:19:15.684Z,100530.75
2022-11-24T11:21:30.239Z,100520.81
2022-11-24T11:23:35.771Z,100523.47
2022-11-24T11:25:41.065Z,100535.19
2022-11-24T11:27:44.450Z,100538.69
2022-11-24T11:34:43.449Z,100543.59
2022-11-24T11:36:49.086Z,100545.72
2022-11-24T11:38:52.513Z,100547.78
2022-11-24T11:40:55.913Z,100542.25
2022-11-24T11:43:05.815Z,100546.19
2022-11-24T11:45:15.076Z,100552.88
2022-11-24T11:47:27.472Z,100547.94
2022-11-24T11:49:30.874Z,100568.69
2022-11-24T11:51:48.717Z,100537.28
2022-11-24T11:53:58.618Z,100550.28
2022-11-24T11:56:16.806Z,100547.16
2022-11-24T11:58:43.087Z,100553.06
2022-11-24T12:00:50.747Z,100525.16
2022-11-24T12:03:27.448Z,100551.28
2022-11-24T12:05:35.878Z,100558.00
2022-11-24T12:07:53.160Z,100554.94
2022-11-24T12:10:08.101Z,100537.47
2022-11-24T12:12:32.174Z,100548.47
2022-11-24T12:14:45.149Z,100551.16
2022-11-24T12:17:00.794Z,100545.94
2022-11-24T12:19:25.401Z,100550.13
2022-11-24T12:21:36.824Z,100557.06
2022-11-24T12:23:53.046Z,100556.13
2022-11-24T12:26:03.186Z,100530.13
2022-11-24T12:28:24.911Z,100553.28
2022-11-24T12:30:37.551Z,100552.63
2022-11-24T12:33:10.780Z,100541.84
2022-11-24T12:35:25.040Z,100556.38
2022-11-24T12:37:53.747Z,100553.31
2022-11-24T12:40:05.852Z,100547.50
2022-11-24T12:42:13.645Z,100555.00
2022-11-24T12:44:45.875Z,100549.25
2022-11-24T12:46:56.704Z,100553.81
2022-11-24T12:49:09.217Z,100549.56
2022-11-24T12:51:18.432Z,100546.00
2022-11-24T12:53:25.737Z,100546.09
2022-11-24T12:55:32.185Z,100533.78
2022-11-24T12:57:41.204Z,100540.66
2022-11-24T12:59:54.527Z,100532.59
2022-11-24T13:02:07.137Z,100544.91
2022-11-24T13:04:19.037Z,100537.06
2022-11-24T13:06:28.774Z,100547.91
2022-11-24T13:08:32.667Z,100546.88
2022-11-24T13:13:03.805Z,100544.69
2022-11-24T13:15:43.420Z,100550.75
2022-11-24T13:18:01.135Z,100566.56
2022-11-24T13:20:22.947Z,100566.66
2022-11-24T13:22:27.815Z,100561.50
2022-11-24T13:24:33.756Z,100570.50
2022-11-24T13:26:47.231Z,100566.13
2022-11-24T13:29:12.929Z,100552.94
2022-11-24T13:31:23.598Z,100560.22
2022-11-24T13:33:37.672Z,100562.56
2022-11-24T13:35:42.677Z,100564.91
2022-11-24T13:37:51.574Z,100568.34
2022-11-24T13:39:56.916Z,100574.31
2022-11-24T13:42:03.304Z,100564.25
2022-11-24T13:44:24.406Z,100580.53
2022-11-24T13:47:04.845Z,100586.69
2022-11-24T13:49:15.265Z,100592.69
2022-11-24T13:51:25.305Z,100585.81
2022-11-24T13:53:34.100Z,100583.75
2022-11-24T13:55:40.106Z,100593.63
2022-11-24T13:57:46.311Z,100591.47
2022-11-24T13:59:49.645Z,100578.81
2022-11-24T14:01:58.445Z,100565.59
2022-11-24T14:04:31.067Z,100578.44
2022-11-24T14:06:38.636Z,100576.28
2022-11-24T14:08:47.375Z,100579.03
2022-11-24T14:10:51.603Z,100562.13
2022-11-24T14:13:25.360Z,100562.75
2022-11-24T14:15:34.155Z,100563.69
2022-11-24T14:17:38.913Z,100571.59
2022-11-24T14:19:42.719Z,100577.66
2022-11-24T14:21:46.512Z,100570.66
2022-11-24T14:23:54.378Z,100561.06
2022-11-24T14:25:57.957Z,100574.22
2022-11-24T14:28:01.495Z,100561.03
2022-11-24T14:30:18.005Z,100568.88
2022-11-24T14:32:22.626Z,100568.03
2022-11-24T14:34:28.362Z,100569.41
2022-11-24T14:36:31.966Z,100568.34
2022-11-24T14:38:35.372Z,100567.84
2022-11-24T14:40:45.699Z,100560.09
2022-11-24T14:42:51.377Z,100560.19
2022-11-24T14:44:56.919Z,100567.75
2022-11-24T14:47:04.674Z,100558.56
2022-11-24T14:49:08.808Z,100565.00
2022-11-24T14:51:17.083Z,100562.50
2022-11-24T14:53:26.318Z,100559.78
2022-11-24T14:55:31.558Z,100554.34
2022-11-24T14:57:38.087Z,100543.88
2022-11-24T14:59:41.389Z,100544.56
2022-11-24T15:01:44.948Z,100548.66
2022-11-24T15:04:26.543Z,100555.53
2022-11-24T15:06:36.690Z,100550.84
2022-11-24T15:08:48.008Z,100551.84
2022-11-24T15:10:58.996Z,100558.69
2022-11-24T15:13:06.440Z,100552.66
2022-11-24T15:15:20.431Z,100558.69
2022-11-24T15:17:26.881Z,100569.94
2022-11-24T15:19:34.235Z,100572.44
2022-11-24T15:21:38.298Z,100570.53
2022-11-24T15:23:42.941Z,100579.97
2022-11-24T15:25:46.436Z,100569.38
2022-11-24T15:27:49.722Z,100578.03
2022-11-24T15:29:54.391Z,100574.41
2022-11-24T15:31:59.585Z,100576.19
2022-11-24T15:34:02.949Z,100574.41
2022-11-24T15:36:06.911Z,100574.31
2022-11-24T15:38:10.664Z,100577.66
2022-11-24T15:40:15.034Z,100574.00
2022-11-24T15:42:18.373Z,100579.97
2022-11-24T15:44:21.670Z,100578.19
2022-11-24T15:46:27.085Z,100574.44
2022-11-24T15:48:31.368Z,100573.63
2022-11-24T15:50:36.931Z,100566.50
2022-11-24T15:52:40.853Z,100570.69
2022-11-24T15:54:44.157Z,100582.66
2022-11-24T15:56:47.667Z,100583.50
2022-11-24T15:58:51.019Z,100586.03
2022-11-24T16:00:54.570Z,100576.34
2022-11-24T16:03:02.096Z,100592.34
2022-11-24T16:05:17.496Z,100590.50
2022-11-24T16:07:20.919Z,100585.06
2022-11-24T16:09:24.264Z,100598.84
2022-11-24T16:11:27.801Z,100604.88
2022-11-24T16:13:31.191Z,100601.28
2022-11-24T16:15:34.630Z,100610.63
2022-11-24T16:17:38.007Z,100605.63
2022-11-24T16:19:42.733Z,100603.63
2022-11-24T16:21:48.614Z,100618.53
2022-11-24T16:23:51.949Z,100622.00
2022-11-24T16:25:57.617Z,100619.28
2022-11-24T16:28:00.958Z,100618.34
2022-11-24T16:30:05.164Z,100611.28
2022-11-24T16:32:08.495Z,100603.41
2022-11-24T16:34:14.731Z,100617.91
2022-11-24T16:36:19.453Z,100616.03
2022-11-24T16:38:22.787Z,100611.63
2022-11-24T16:40:26.711Z,100625.31
2022-11-24T16:42:31.444Z,100606.75
2022-11-24T16:44:35.097Z,100627.81
2022-11-24T16:46:38.581Z,100582.53
2022-11-24T16:48:42.074Z,100630.31
2022-11-24T16:50:45.386Z,100627.50
2022-11-24T16:52:51.359Z,100626.44
2022-11-24T16:54:54.732Z,100625.56
2022-11-24T16:56:58.217Z,100634.19
2022-11-24T16:59:01.977Z,100629.84
2022-11-24T17:01:06.375Z,100633.59
2022-11-24T17:03:09.822Z,100634.66
2022-11-24T17:05:13.423Z,100624.75
2022-11-24T17:07:16.776Z,100632.56
2022-11-24T17:09:22.118Z,100623.84
2022-11-24T17:11:29.502Z,100629.97
2022-11-24T17:13:33.590Z,100623.09
2022-11-24T17:15:45.312Z,100626.56
2022-11-24T17:18:22.268Z,100620.19
2022-11-24T17:20:14.055Z,100624.47
2022-11-24T17:22:17.454Z,100626.09
2022-11-24T17:24:22.115Z,100625.81
2022-11-24T17:26:25.990Z,100636.22
2022-11-24T17:28:29.315Z,100639.75
2022-11-24T17:30:32.720Z,100651.84
2022-11-24T17:32:36.004Z,100650.16
2022-11-24T17:34:39.347Z,100654.63
2022-11-24T17:36:44.778Z,100640.47
2022-11-24T17:38:49.340Z,100652.78
2022-11-24T17:40:53.963Z,100651.63
2022-11-24T17:42:59.199Z,100648.03
2022-11-24T17:45:02.550Z,100657.38
2022-11-24T17:47:06.101Z,100655.00
2022-11-24T17:49:13.095Z,100652.34
2022-11-24T17:51:18.626Z,100650.63
2022-11-24T17:53:22.032Z,100650.56
2022-11-24T17:55:25.365Z,100643.44
2022-11-24T17:57:30.053Z,100650.38
2022-11-24T17:59:33.358Z,100650.28
2022-11-24T18:01:36.822Z,100643.34
2022-11-24T18:03:40.465Z,100656.28
2022-11-24T18:05:44.014Z,100659.72
2022-11-24T18:07:47.552Z,100653.66
2022-11-24T18:09:52.573Z,100659.72
2022-11-24T18:11:55.914Z,100657.81
2022-11-24T18:14:03.432Z,100658.56
2022-11-24T18:16:09.499Z,100656.84
2022-11-24T18:18:12.865Z,100658.25
2022-11-24T18:20:16.417Z,100657.25
2022-11-24T18:22:36.594Z,100655.28
2022-11-24T18:24:43.183Z,100658.53
2022-11-24T18:26:46.594Z,100653.38
2022-11-24T18:28:50.624Z,100654.28
2022-11-24T18:31:01.715Z,100640.47
2022-11-24T18:33:05.023Z,100657.81
2022-11-24T18:35:09.146Z,100650.72
2022-11-24T18:37:13.494Z,100653.22
2022-11-24T18:39:18.143Z,100639.72
2022-11-24T18:41:22.246Z,100652.13
2022-11-24T18:43:27.437Z,100649.59
2022-11-24T18:45:30.791Z,100653.97
2022-11-24T18:47:36.102Z,100655.63
2022-11-24T18:49:39.507Z,100647.78
2022-11-24T18:51:42.759Z,100659.84
2022-11-24T18:53:47.646Z,100659.63
2022-11-24T18:55:58.909Z,100653.13
2022-11-24T18:58:02.186Z,100644.94
2022-11-24T19:00:07.379Z,100647.91
2022-11-24T19:02:12.184Z,100650.28
2022-11-24T19:04:17.012Z,100660.53
2022-11-24T19:06:22.636Z,100660.63
2022-11-24T19:08:25.964Z,100656.53
2022-11-24T19:10:29.383Z,100656.41
2022-11-24T19:12:32.698Z,100659.75
2022-11-24T19:14:36.212Z,100654.44
2022-11-24T19:16:40.457Z,100650.63
2022-11-24T19:18:46.493Z,100648.78
2022-11-24T19:20:56.781Z,100642.47
2022-11-24T19:23:00.087Z,100648.63
2022-11-24T19:25:03.401Z,100644.03
2022-11-24T19:27:07.353Z,100652.28
2022-11-24T19:29:11.072Z,100633.25
2022-11-24T19:31:16.640Z,100638.19
2022-11-24T19:33:21.477Z,100638.31
2022-11-24T19:35:24.768Z,100639.22
2022-11-24T19:37:30.042Z,100640.44
2022-11-24T19:39:33.473Z,100634.97
2022-11-24T19:41:36.993Z,100636.94
2022-11-24T19:43:40.654Z,100644.56
2022-11-24T19:45:44.347Z,100634.84
2022-11-24T19:47:47.808Z,100634.63
2022-11-24T19:49:51.158Z,100638.25
2022-11-24T19:51:54.449Z,100642.25
2022-11-24T19:53:59.337Z,100648.16
2022-11-24T19:56:06.274Z,100641.84
2022-11-24T19:58:09.582Z,100642.91
2022-11-24T20:00:14.723Z,100630.75
2022-11-24T20:02:18.155Z,100634.19
2022-11-24T20:04:21.571Z,100631.31
2022-11-24T20:06:24.974Z,100633.88
2022-11-24T20:08:30.328Z,100639.97
2022-11-24T20:10:35.083Z,100648.69
2022-11-24T20:12:38.430Z,100637.19
2022-11-24T20:14:42.070Z,100637.13
2022-11-24T20:16:47.032Z,100641.38
2022-11-24T20:18:50.572Z,100641.38
2022-11-24T20:20:53.987Z,100640.00
2022-11-24T20:22:57.430Z,100644.72
2022-11-24T20:25:00.789Z,100639.25
2022-11-24T20:27:05.617Z,100642.38
2022-11-24T20:29:09.841Z,100643.75
2022-11-24T20:31:16.886Z,100627.66
2022-11-24T20:33:20.325Z,100638.41
2022-11-24T20:35:23.771Z,100644.44
2022-11-24T20:37:28.473Z,100647.13
2022-11-24T20:39:31.777Z,100594.19
2022-11-24T20:41:37.409Z,100642.16
2022-11-24T20:43:43.658Z,100643.25
2022-11-24T20:45:47.094Z,100655.03
2022-11-24T20:47:50.503Z,100653.34
2022-11-24T20:49:53.792Z,100642.38
2022-11-24T20:51:57.425Z,100645.44
2022-11-24T20:54:03.376Z,100639.16
2022-11-24T20:56:08.773Z,100643.41
2022-11-24T20:58:13.310Z,100641.59
2022-11-24T21:00:18.540Z,100646.59
2022-11-24T21:02:22.151Z,100635.59
2022-11-24T21:04:27.930Z,100624.22
2022-11-24T21:06:31.619Z,100646.25
2022-11-24T21:08:36.158Z,100633.00
2022-11-24T21:10:39.435Z,100630.53
2022-11-24T21:12:42.755Z,100636.69
2022-11-24T21:14:46.139Z,100624.56
2022-11-24T21:16:50.856Z,100637.53
2022-11-24T21:18:57.326Z,100636.56
2022-11-24T21:21:00.775Z,100637.94
2022-11-24T21:23:05.026Z,100633.13
2022-11-24T21:25:09.217Z,100615.34
2022-11-24T21:27:12.478Z,100637.69
2022-11-24T21:29:17.315Z,100632.00
2022-11-24T21:31:22.922Z,100626.63
2022-11-24T21:33:27.726Z,100638.31
2022-11-24T21:35:31.211Z,100636.47
2022-11-24T21:37:34.593Z,100636.34
2022-11-24T21:39:38.004Z,100634.53
2022-11-24T21:41:42.283Z,100643.19
2022-11-24T21:43:45.699Z,100627.50
2022-11-24T21:45:49.306Z,100634.47
2022-11-24T21:47:52.686Z,100639.00
2022-11-24T21:49:57.383Z,100625.97
2022-11-24T21:52:00.783Z,100628.66
2022-11-24T21:54:04.172Z,100627.75
2022-11-24T21:56:12.590Z,100627.16
2022-11-24T21:58:15.942Z,100627.16
2022-11-24T22:00:20.550Z,100631.88
2022-11-24T22:02:23.930Z,100624.78
2022-11-24T22:04:27.277Z,100630.44
2022-11-24T22:06:33.172Z,100614.53
2022-11-24T22:08:36.981Z,100563.22
2022-11-24T22:10:40.454Z,100631.81
2022-11-24T22:12:43.767Z,100636.09
2022-11-24T22:14:47.054Z,100625.63
2022-11-24T22:16:50.507Z,100628.31
2022-11-24T22:18:53.981Z,100620.88
2022-11-24T22:20:57.346Z,100615.81
2022-11-24T22:23:02.286Z,100618.28
2022-11-24T22:25:06.345Z,100613.44
2022-11-24T22:27:09.621Z,100613.63
2022-11-24T22:29:13.149Z,100620.63
2022-11-24T22:31:19.196Z,100613.41
2022-11-24T22:33:22.569Z,100614.28
2022-11-24T22:35:25.977Z,100611.00
2022-11-24T22:37:29.273Z,100608.13
2022-11-24T22:39:33.887Z,100609.88
2022-11-24T22:41:37.636Z,100588.00
2022-11-24T22:43:42.680Z,100594.31
2022-11-24T22:45:46.090Z,100602.13
2022-11-24T22:47:54.043Z,100598.84
2022-11-24T22:49:57.339Z,100583.03
2022-11-24T22:52:00.673Z,100590.16
2022-11-24T22:54:05.540Z,100590.94
2022-11-24T22:56:12.189Z,100590.09
2022-11-24T22:58:15.512Z,100587.38
2022-11-24T23:00:19.464Z,100565.38
2022-11-24T23:02:22.743Z,100582.06
2022-11-24T23:04:26.075Z,100580.44
2022-11-24T23:06:31.182Z,100582.16
2022-11-24T23:08:36.157Z,100576.19
2022-11-24T23:10:39.545Z,100568.56
2022-11-24T23:12:44.189Z,100575.91
2022-11-24T23:14:48.787Z,100574.50
2022-11-24T23:16:52.339Z,100583.03
2022-11-24T23:18:56.328Z,100577.31
2022-11-24T23:21:05.613Z,100587.03
2022-11-24T23:23:08.925Z,100590.50
2022-11-24T23:25:12.169Z,100588.72
2022-11-24T23:27:15.540Z,100588.69
2022-11-24T23:29:20.189Z,100585.41
2022-11-24T23:31:28.244Z,100584.78
2022-11-24T23:33:32.523Z,100584.63
2022-11-24T23:35:36.210Z,100590.75
2022-11-24T23:38:05.926Z,100584.00
2022-11-24T23:40:03.567Z,100585.78
2022-11-24T23:42:06.990Z,100585.81
2022-11-24T23:44:10.351Z,100578.97
2022-11-24T23:46:17.021Z,100590.97
2022-11-24T23:48:20.543Z,100584.72
2022-11-24T23:50:23.864Z,100584.88
2022-11-24T23:52:27.713Z,100590.25
2022-11-24T23:54:31.000Z,100584.84
2022-11-24T23:56:34.455Z,100583.81
2022-11-24T23:58:37.721Z,100583.81
